Time;durP1;ratioP1;P1;durP2;ratioP2;P2;SDS_P1;SDS_P2;PMS_P1;PMS_P2;Temp;Humidity;BMP_temperature;BMP_pressure;BME280_temperature;BME280_humidity;BME280_pressure;Samples;Min_cycle;Max_cycle;Signal;HPM_P1;HPM_P2
2021/09/12 00:01:23;;;;;;;;;;;;;;;;;;5025615;28;19920;-78
2021/09/12 00:04:07;;;;;;;;;;;;;;;;;;5027369;28;20408;-77
2021/09/12 00:06:51;;;;;;;;;;;;;;;;;;5031127;28;19920;-77
2021/09/12 00:09:36;;;;;;;;;;;;;;;;;;5025818;28;19928;-77
2021/09/12 00:12:20;;;;;;;;;;;;;;;;;;5028438;28;19920;-77
2021/09/12 00:15:04;;;;;;;;;;;;;;;;;;5025143;28;19967;-77
2021/09/12 00:17:48;;;;;;;;;;;;;;;;;;5029641;28;19921;-77
2021/09/12 00:20:32;;;;;;;;;;;;;;;;;;5030355;28;19920;-78
2021/09/12 00:23:17;;;;;;;;;;;;;;;;;;5028464;28;19979;-77
2021/09/12 00:26:01;;;;;;;;;;;;;;;;;;5029867;28;19935;-78
2021/09/12 00:28:45;;;;;;;;;;;;;;;;;;5027551;28;19924;-78
2021/09/12 00:31:29;;;;;;;;;;;;;;;;;;5032816;28;19936;-77
2021/09/12 00:34:14;;;;;;;;;;;;;;;;;;5027241;28;19921;-77
2021/09/12 00:36:58;;;;;;;;;;;;;;;;;;5032427;28;19928;-78
2021/09/12 00:39:42;;;;;;;;;;;;;;;;;;5025188;28;19924;-78
2021/09/12 00:42:27;;;;;;;;;;;;;;;;;;5030184;28;19920;-77
2021/09/12 00:45:11;;;;;;;;;;;;;;;;;;5030218;28;19924;-78
2021/09/12 00:47:55;;;;;;;;;;;;;;;;;;5028194;28;19920;-78
2021/09/12 00:50:39;;;;;;;;;;;;;;;;;;5029409;28;20493;-78
2021/09/12 00:53:24;;;;;;;;;;;;;;;;;;5037378;28;19920;-78
2021/09/12 00:56:08;;;;;;;;;;;;;;;;;;5030014;28;20270;-78
2021/09/12 00:58:52;;;;;;;;;;;;;;;;;;5033067;28;19920;-78
2021/09/12 01:01:36;;;;;;;;;;;;;;;;;;5031353;28;19920;-78
2021/09/12 01:04:21;;;;;;;;;;;;;;;;;;5032268;28;20309;-78
2021/09/12 01:07:05;;;;;;;;;;;;;;;;;;5034115;28;19925;-78
2021/09/12 01:09:50;;;;;;;;;;;;;;;;;;5027279;28;20404;-78
2021/09/12 01:12:34;;;;;;;;;;;;;;;;;;5050126;28;19928;-78
2021/09/12 01:15:18;;;;;;;;;;;;;;;;;;5033902;28;19920;-78
2021/09/12 01:18:03;;;;;;;;;;;;;;;;;;5028316;28;20278;-78
2021/09/12 01:20:48;;;;;;;;;;;;;;;;;;5029445;28;19921;-78
2021/09/12 01:23:32;;;;;;;;;;;;;;;;;;5031047;28;19924;-78
2021/09/12 01:26:16;;;;;;;;;;;;;;;;;;5033393;28;19927;-78
2021/09/12 01:29:00;;;;;;;;;;;;;;;;;;5035287;28;19981;-78
2021/09/12 01:31:45;;;;;;;;;;;;;;;;;;5026865;28;19920;-78
2021/09/12 01:34:29;;;;;;;;;;;;;;;;;;5033799;28;20293;-78
2021/09/12 01:37:13;;;;;;;;;;;;;;;;;;5036345;28;19924;-78
2021/09/12 01:39:57;;;;;;;;;;;;;;;;;;5034508;28;19928;-78
2021/09/12 01:42:42;;;;;;;;;;;;;;;;;;5037664;28;19943;-79
2021/09/12 01:45:26;;;;;;;;;;;;;;;;;;5036014;28;19928;-78
2021/09/12 01:48:10;;;;;;;;;;;;;;;;;;5033635;28;19921;-78
2021/09/12 01:50:54;;;;;;;;;;;;;;;;;;5034149;28;19928;-78
2021/09/12 01:53:38;;;;;;;;;;;;;;;;;;5034805;28;19920;-78
2021/09/12 01:56:23;;;;;;;;;;;;;;;;;;5032873;28;19920;-78
2021/09/12 01:59:07;;;;;;;;;;;;;;;;;;5036802;28;19928;-78
2021/09/12 02:01:51;;;;;;;;;;;;;;;;;;5035818;28;19920;-79
2021/09/12 02:04:36;;;;;;;;;;;;;;;;;;5042231;28;20408;-79
2021/09/12 02:07:20;;;;;;;;;;;;;;;;;;5032171;28;19921;-77
2021/09/12 02:10:05;;;;;;;;;;;;;;;;;;5031153;28;20012;-77
2021/09/12 02:12:50;;;;;;;;;;;;;;;;;;5031627;28;19920;-77
2021/09/12 02:15:34;;;;;;;;;;;;;;;;;;5030879;28;19936;-77
2021/09/12 02:18:18;;;;;;;;;;;;;;;;;;5028026;28;19924;-77
2021/09/12 02:21:02;;;;;;;;;;;;;;;;;;5033163;28;19920;-77
2021/09/12 02:23:47;;;;;;;;;;;;;;;;;;5046222;28;19924;-78
2021/09/12 02:26:31;;;;;;;;;;;;;;;;;;5039501;28;19940;-78
2021/09/12 02:29:16;;;;;;;;;;;;;;;;;;5037968;28;19921;-78
2021/09/12 02:32:00;;;;;;;;;;;;;;;;;;5033321;28;19946;-78
2021/09/12 02:34:44;;;;;;;;;;;;;;;;;;5032498;28;19920;-78
2021/09/12 02:37:29;;;;;;;;;;;;;;;;;;5032979;28;20743;-77
2021/09/12 02:40:13;;;;;;;;;;;;;;;;;;5034904;28;19920;-78
2021/09/12 02:42:57;;;;;;;;;;;;;;;;;;5031349;28;19944;-78
2021/09/12 02:45:42;;;;;;;;;;;;;;;;;;5037176;28;19928;-78
2021/09/12 02:48:26;;;;;;;;;;;;;;;;;;5029696;28;19939;-77
2021/09/12 02:51:10;;;;;;;;;;;;;;;;;;5029254;28;19921;-78
2021/09/12 02:53:54;;;;;;;;;;;;;;;;;;5032652;28;19936;-78
2021/09/12 02:56:38;;;;;;;;;;;;;;;;;;5031475;28;19920;-78
2021/09/12 02:59:22;;;;;;;;;;;;;;;;;;5029304;28;19927;-77
2021/09/12 03:02:06;;;;;;;;;;;;;;;;;;5037033;28;19924;-78
2021/09/12 03:04:50;;;;;;;;;;;;;;;;;;5038745;28;19924;-78
2021/09/12 03:07:35;;;;;;;;;;;;;;;;;;5034424;28;19920;-79
2021/09/12 03:10:17;;;;;;;;;;;;;;;;;;5089819;28;19963;-70
2021/09/12 03:13:02;;;;;;;;;;;;;;;;;;5071928;28;19913;-68
2021/09/12 03:15:46;;;;;;;;;;;;;;;;;;5064866;28;19923;-67
2021/09/12 03:18:30;;;;;;;;;;;;;;;;;;5061523;28;19919;-67
2021/09/12 03:21:14;;;;;;;;;;;;;;;;;;5061863;28;19935;-67
2021/09/12 03:23:58;;;;;;;;;;;;;;;;;;5058461;28;19928;-67
2021/09/12 03:26:42;;;;;;;;;;;;;;;;;;5059037;28;19920;-67
2021/09/12 03:29:26;;;;;;;;;;;;;;;;;;5057324;28;19927;-67
2021/09/12 03:32:11;;;;;;;;;;;;;;;;;;5059476;28;20272;-68
2021/09/12 03:34:55;;;;;;;;;;;;;;;;;;5062391;28;19919;-68
2021/09/12 03:37:39;;;;;;;;;;;;;;;;;;5059279;28;19924;-67
2021/09/12 03:40:23;;;;;;;;;;;;;;;;;;5060223;28;19921;-67
2021/09/12 03:43:07;;;;;;;;;;;;;;;;;;5061440;28;19991;-72
2021/09/12 03:45:55;;;;;;;;;;;;;;;;;;5056237;28;19920;-71
2021/09/12 03:48:40;;;;;;;;;;;;;;;;;;5050280;28;19924;-69
2021/09/12 03:51:24;;;;;;;;;;;;;;;;;;5062747;28;19920;-70
2021/09/12 03:54:08;;;;;;;;;;;;;;;;;;5066682;28;19920;-70
2021/09/12 03:56:52;;;;;;;;;;;;;;;;;;5048843;28;19928;-71
2021/09/12 03:59:37;;;;;;;;;;;;;;;;;;5061812;28;20395;-72
2021/09/12 04:02:21;;;;;;;;;;;;;;;;;;5067773;28;19923;-72
2021/09/12 04:05:05;;;;;;;;;;;;;;;;;;5062442;28;19919;-72
2021/09/12 04:07:49;;;;;;;;;;;;;;;;;;5055613;28;19923;-72
2021/09/12 04:10:33;;;;;;;;;;;;;;;;;;5057156;28;20396;-71
2021/09/12 04:13:18;;;;;;;;;;;;;;;;;;5059329;28;19927;-71
2021/09/12 04:16:03;;;;;;;;;;;;;;;;;;5058524;28;19919;-71
2021/09/12 04:18:47;;;;;;;;;;;;;;;;;;5057196;28;19920;-69
2021/09/12 04:21:31;;;;;;;;;;;;;;;;;;5049700;28;19920;-69
2021/09/12 04:24:15;;;;;;;;;;;;;;;;;;5055237;28;19920;-72
2021/09/12 04:26:59;;;;;;;;;;;;;;;;;;5052156;28;19923;-71
2021/09/12 04:29:44;;;;;;;;;;;;;;;;;;5041515;28;20403;-77
2021/09/12 04:32:28;;;;;;;;;;;;;;;;;;5035361;28;19920;-75
2021/09/12 04:35:12;;;;;;;;;;;;;;;;;;5045204;28;19919;-70
2021/09/12 04:37:57;;;;;;;;;;;;;;;;;;5045197;28;19921;-71
2021/09/12 04:40:41;;;;;;;;;;;;;;;;;;5050396;28;20430;-71
2021/09/12 04:43:25;;;;;;;;;;;;;;;;;;5040981;28;19920;-71
2021/09/12 04:46:09;;;;;;;;;;;;;;;;;;5045600;28;19939;-71
2021/09/12 04:48:53;;;;;;;;;;;;;;;;;;5044482;28;19932;-71
2021/09/12 04:51:38;;;;;;;;;;;;;;;;;;5044586;28;20501;-70
2021/09/12 04:54:22;;;;;;;;;;;;;;;;;;5052877;28;19919;-72
2021/09/12 04:57:06;;;;;;;;;;;;;;;;;;5054499;28;20419;-73
2021/09/12 04:59:50;;;;;;;;;;;;;;;;;;5053365;28;19936;-73
2021/09/12 05:02:34;;;;;;;;;;;;;;;;;;5059973;28;19928;-72
2021/09/12 05:05:19;;;;;;;;;;;;;;;;;;5054012;28;19922;-71
2021/09/12 05:08:03;;;;;;;;;;;;;;;;;;5053833;28;19920;-72
2021/09/12 05:10:47;;;;;;;;;;;;;;;;;;5044460;28;19920;-73
2021/09/12 05:13:32;;;;;;;;;;;;;;;;;;5033069;28;19936;-73
2021/09/12 05:16:16;;;;;;;;;;;;;;;;;;5036693;28;19919;-73
2021/09/12 05:19:00;;;;;;;;;;;;;;;;;;5054149;28;19919;-73
2021/09/12 05:21:44;;;;;;;;;;;;;;;;;;5053908;28;19971;-73
2021/09/12 05:24:28;;;;;;;;;;;;;;;;;;5054004;28;19920;-72
2021/09/12 05:27:13;;;;;;;;;;;;;;;;;;5053616;28;19920;-72
2021/09/12 05:29:57;;;;;;;;;;;;;;;;;;5044872;28;20296;-72
2021/09/12 05:32:45;;;;;;;;;;;;;;;;;;5041578;28;20291;-73
2021/09/12 05:35:30;;;;;;;;;;;;;;;;;;5042374;28;20395;-73
2021/09/12 05:38:14;;;;;;;;;;;;;;;;;;5044253;28;19920;-71
2021/09/12 05:40:58;;;;;;;;;;;;;;;;;;5044225;28;19928;-71
2021/09/12 05:43:45;;;;;;;;;;;;;;;;;;5044171;28;19927;-70
2021/09/12 05:46:30;;;;;;;;;;;;;;;;;;5044535;28;19925;-70
2021/09/12 05:49:14;;;;;;;;;;;;;;;;;;5038668;28;19924;-69
2021/09/12 05:51:58;;;;;;;;;;;;;;;;;;5052862;28;19920;-70
2021/09/12 05:54:42;;;;;;;;;;;;;;;;;;5047539;28;19920;-72
2021/09/12 05:57:26;;;;;;;;;;;;;;;;;;5043821;28;19924;-71
2021/09/12 06:00:10;;;;;;;;;;;;;;;;;;5040584;28;19920;-71
2021/09/12 06:02:55;;;;;;;;;;;;;;;;;;5050583;28;19920;-72
2021/09/12 06:05:39;;;;;;;;;;;;;;;;;;5053250;28;20323;-72
2021/09/12 06:08:23;;;;;;;;;;;;;;;;;;5043555;28;19920;-72
2021/09/12 06:11:10;;;;;;;;;;;;;;;;;;5045623;28;20451;-72
2021/09/12 06:13:55;;;;;;;;;;;;;;;;;;5043130;28;19935;-73
2021/09/12 06:16:39;;;;;;;;;;;;;;;;;;5044759;28;19928;-73
2021/09/12 06:19:23;;;;;;;;;;;;;;;;;;5042100;28;19936;-72
2021/09/12 06:22:07;;;;;;;;;;;;;;;;;;5040718;28;19920;-73
2021/09/12 06:24:51;;;;;;;;;;;;;;;;;;5047460;28;20292;-73
2021/09/12 06:27:35;;;;;;;;;;;;;;;;;;5039640;28;19921;-73
2021/09/12 06:30:21;;;;;;;;;;;;;;;;;;5039397;28;19924;-72
2021/09/12 06:33:05;;;;;;;;;;;;;;;;;;5045081;28;19920;-69
2021/09/12 06:35:49;;;;;;;;;;;;;;;;;;5042150;28;20060;-69
2021/09/12 06:38:33;;;;;;;;;;;;;;;;;;5041769;28;19936;-69
2021/09/12 06:41:17;;;;;;;;;;;;;;;;;;5044706;28;19920;-71
2021/09/12 06:44:02;;;;;;;;;;;;;;;;;;5040178;28;19920;-69
2021/09/12 06:46:46;;;;;;;;;;;;;;;;;;5040148;28;19932;-69
2021/09/12 06:49:31;;;;;;;;;;;;;;;;;;5042345;28;19924;-69
2021/09/12 06:52:15;;;;;;;;;;;;;;;;;;5041732;28;19920;-69
2021/09/12 06:54:59;;;;;;;;;;;;;;;;;;5042983;28;19940;-69
2021/09/12 06:57:43;;;;;;;;;;;;;;;;;;5041121;28;19920;-69
2021/09/12 07:00:27;;;;;;;;;;;;;;;;;;5042758;28;20004;-69
2021/09/12 07:03:11;;;;;;;;;;;;;;;;;;5042135;28;19921;-69
2021/09/12 07:05:56;;;;;;;;;;;;;;;;;;5040802;28;19920;-70
2021/09/12 07:08:40;;;;;;;;;;;;;;;;;;5041638;28;19932;-69
2021/09/12 07:11:24;;;;;;;;;;;;;;;;;;5041936;28;20404;-69
2021/09/12 07:14:08;;;;;;;;;;;;;;;;;;5046587;28;19919;-70
2021/09/12 07:16:52;;;;;;;;;;;;;;;;;;5043765;28;19920;-70
2021/09/12 07:19:37;;;;;;;;;;;;;;;;;;5045967;28;19920;-69
2021/09/12 07:22:21;;;;;;;;;;;;;;;;;;5039257;28;19936;-70
2021/09/12 07:25:06;;;;;;;;;;;;;;;;;;5040941;28;19923;-70
2021/09/12 07:27:50;;;;;;;;;;;;;;;;;;5041595;28;20300;-69
2021/09/12 07:30:34;;;;;;;;;;;;;;;;;;5041595;28;19924;-69
2021/09/12 07:33:18;;;;;;;;;;;;;;;;;;5043005;28;19920;-69
2021/09/12 07:36:02;;;;;;;;;;;;;;;;;;5045156;28;19984;-69
2021/09/12 07:38:46;;;;;;;;;;;;;;;;;;5040291;28;20387;-69
2021/09/12 07:41:31;;;;;;;;;;;;;;;;;;5040423;28;19920;-69
2021/09/12 07:44:15;;;;;;;;;;;;;;;;;;5042106;28;20380;-69
2021/09/12 07:47:00;;;;;;;;;;;;;;;;;;5042280;28;19940;-69
2021/09/12 07:49:44;;;;;;;;;;;;;;;;;;5044985;28;20415;-69
2021/09/12 07:52:29;;;;;;;;;;;;;;;;;;5040784;28;19924;-69
2021/09/12 07:55:13;;;;;;;;;;;;;;;;;;5044361;28;20308;-69
2021/09/12 07:57:58;;;;;;;;;;;;;;;;;;5048838;28;20398;-69
2021/09/12 08:00:42;;;;;;;;;;;;;;;;;;5047718;28;19920;-69
2021/09/12 08:03:26;;;;;;;;;;;;;;;;;;5047389;28;19920;-68
2021/09/12 08:06:10;;;;;;;;;;;;;;;;;;5045981;28;19920;-68
2021/09/12 08:08:54;;;;;;;;;;;;;;;;;;5045139;28;19924;-67
2021/09/12 08:11:38;;;;;;;;;;;;;;;;;;5046763;28;19928;-70
2021/09/12 08:14:23;;;;;;;;;;;;;;;;;;5048002;28;20311;-69
2021/09/12 08:17:08;;;;;;;;;;;;;;;;;;5049308;28;20292;-67
2021/09/12 08:19:52;;;;;;;;;;;;;;;;;;5045204;28;20379;-69
2021/09/12 08:22:36;;;;;;;;;;;;;;;;;;5043963;28;19920;-67
2021/09/12 08:25:20;;;;;;;;;;;;;;;;;;5043824;28;19920;-65
2021/09/12 08:28:05;;;;;;;;;;;;;;;;;;5047135;28;20289;-67
2021/09/12 08:30:49;;;;;;;;;;;;;;;;;;5049229;28;19924;-67
2021/09/12 08:33:33;;;;;;;;;;;;;;;;;;5049376;28;19919;-67
2021/09/12 08:36:17;;;;;;;;;;;;;;;;;;5049570;28;19920;-66
2021/09/12 08:39:01;;;;;;;;;;;;;;;;;;5047837;28;20000;-67
2021/09/12 08:41:46;;;;;;;;;;;;;;;;;;5048439;28;19920;-67
2021/09/12 08:44:31;;;;;;;;;;;;;;;;;;5048583;28;19920;-67
2021/09/12 08:47:15;;;;;;;;;;;;;;;;;;5049724;28;19920;-64
2021/09/12 08:49:59;;;;;;;;;;;;;;;;;;5047004;28;19932;-65
2021/09/12 08:52:43;;;;;;;;;;;;;;;;;;5044648;28;19936;-67
2021/09/12 08:55:28;;;;;;;;;;;;;;;;;;5043484;28;19936;-66
2021/09/12 08:58:12;;;;;;;;;;;;;;;;;;5046009;28;19920;-67
2021/09/12 09:00:56;;;;;;;;;;;;;;;;;;5044092;28;19920;-67
2021/09/12 09:03:41;;;;;;;;;;;;;;;;;;5042811;28;20384;-66
2021/09/12 09:06:25;;;;;;;;;;;;;;;;;;5044154;28;20407;-66
2021/09/12 09:09:10;;;;;;;;;;;;;;;;;;5046853;28;19927;-67
2021/09/12 09:11:55;;;;;;;;;;;;;;;;;;5049701;28;19944;-67
2021/09/12 09:14:39;;;;;;;;;;;;;;;;;;5044719;28;19928;-67
2021/09/12 09:17:23;;;;;;;;;;;;;;;;;;5045351;28;19924;-69
2021/09/12 09:20:07;;;;;;;;;;;;;;;;;;5050280;28;19932;-65
2021/09/12 09:22:52;;;;;;;;;;;;;;;;;;5042787;28;19920;-66
2021/09/12 09:25:36;;;;;;;;;;;;;;;;;;5043171;28;19920;-66
2021/09/12 09:28:20;;;;;;;;;;;;;;;;;;5042452;28;19920;-66
2021/09/12 09:31:04;;;;;;;;;;;;;;;;;;5043539;28;19924;-65
2021/09/12 09:33:48;;;;;;;;;;;;;;;;;;5045718;28;20304;-66
2021/09/12 09:36:33;;;;;;;;;;;;;;;;;;5049164;28;19927;-69
2021/09/12 09:39:17;;;;;;;;;;;;;;;;;;5051647;28;19935;-68
2021/09/12 09:42:01;;;;;;;;;;;;;;;;;;5047110;28;19920;-70
2021/09/12 09:44:45;;;;;;;;;;;;;;;;;;5046921;28;19920;-69
2021/09/12 09:47:29;;;;;;;;;;;;;;;;;;5048120;28;19928;-66
2021/09/12 09:50:14;;;;;;;;;;;;;;;;;;5044699;28;19924;-67
2021/09/12 09:52:58;;;;;;;;;;;;;;;;;;5047549;28;19935;-68
2021/09/12 09:55:42;;;;;;;;;;;;;;;;;;5047567;28;19936;-68
2021/09/12 09:58:26;;;;;;;;;;;;;;;;;;5044506;28;19920;-68
2021/09/12 10:01:10;;;;;;;;;;;;;;;;;;5043544;28;19924;-68
2021/09/12 10:03:55;;;;;;;;;;;;;;;;;;5042770;28;19921;-68
2021/09/12 10:06:39;;;;;;;;;;;;;;;;;;5042331;28;19920;-68
2021/09/12 10:09:23;;;;;;;;;;;;;;;;;;5042501;28;19924;-68
2021/09/12 10:12:08;;;;;;;;;;;;;;;;;;5044500;28;19920;-65
2021/09/12 10:14:53;;;;;;;;;;;;;;;;;;5043752;28;19920;-67
2021/09/12 10:17:37;;;;;;;;;;;;;;;;;;5042544;28;19920;-66
2021/09/12 10:20:22;;;;;;;;;;;;;;;;;;5045081;28;20403;-65
2021/09/12 10:23:07;;;;;;;;;;;;;;;;;;5046707;28;19924;-66
2021/09/12 10:25:51;;;;;;;;;;;;;;;;;;5043314;28;19920;-66
2021/09/12 10:28:35;;;;;;;;;;;;;;;;;;5041405;28;20424;-68
2021/09/12 10:31:19;;;;;;;;;;;;;;;;;;5047494;28;19943;-67
2021/09/12 10:34:04;;;;;;;;;;;;;;;;;;5044853;28;19936;-68
2021/09/12 10:36:48;;;;;;;;;;;;;;;;;;5042946;28;20281;-68
2021/09/12 10:39:35;;;;;;;;;;;;;;;;;;5043134;28;19920;-68
2021/09/12 10:42:19;;;;;;;;;;;;;;;;;;5041250;28;20311;-68
2021/09/12 10:45:04;;;;;;;;;;;;;;;;;;5041890;28;19920;-68
2021/09/12 10:47:48;;;;;;;;;;;;;;;;;;5041019;28;19920;-67
2021/09/12 10:50:32;;;;;;;;;;;;;;;;;;5040618;28;19924;-67
2021/09/12 10:53:16;;;;;;;;;;;;;;;;;;5039439;28;19924;-67
2021/09/12 10:56:00;;;;;;;;;;;;;;;;;;5037221;28;19924;-67
2021/09/12 10:58:44;;;;;;;;;;;;;;;;;;5039585;28;20301;-67
2021/09/12 11:01:28;;;;;;;;;;;;;;;;;;5042866;28;19928;-67
2021/09/12 11:04:13;;;;;;;;;;;;;;;;;;5043907;28;19920;-67
2021/09/12 11:06:57;;;;;;;;;;;;;;;;;;5040524;28;19919;-67
2021/09/12 11:09:41;;;;;;;;;;;;;;;;;;5041516;28;20423;-67
2021/09/12 11:12:25;;;;;;;;;;;;;;;;;;5041593;28;19935;-67
2021/09/12 11:15:09;;;;;;;;;;;;;;;;;;5045865;28;20072;-67
2021/09/12 11:17:53;;;;;;;;;;;;;;;;;;5042671;28;19920;-67
2021/09/12 11:20:38;;;;;;;;;;;;;;;;;;5041660;28;19920;-67
2021/09/12 11:23:22;;;;;;;;;;;;;;;;;;5047860;28;19920;-67
2021/09/12 11:26:06;;;;;;;;;;;;;;;;;;5043408;28;20297;-67
2021/09/12 11:28:51;;;;;;;;;;;;;;;;;;5046405;28;19928;-66
2021/09/12 11:31:35;;;;;;;;;;;;;;;;;;5043070;28;19920;-67
2021/09/12 11:34:19;;;;;;;;;;;;;;;;;;5045908;28;19920;-66
2021/09/12 11:37:03;;;;;;;;;;;;;;;;;;5045768;28;19923;-66
2021/09/12 11:39:47;;;;;;;;;;;;;;;;;;5049400;28;19975;-67
2021/09/12 11:42:31;;;;;;;;;;;;;;;;;;5056236;28;19935;-67
2021/09/12 11:45:16;;;;;;;;;;;;;;;;;;5056191;28;19920;-67
2021/09/12 11:48:00;;;;;;;;;;;;;;;;;;5055804;28;19924;-67
2021/09/12 11:50:44;;;;;;;;;;;;;;;;;;5055665;28;19924;-67
2021/09/12 11:53:28;;;;;;;;;;;;;;;;;;5055707;28;19920;-66
2021/09/12 11:56:13;;;;;;;;;;;;;;;;;;5055803;28;19936;-67
2021/09/12 11:58:57;;;;;;;;;;;;;;;;;;5055772;28;19920;-66
2021/09/12 12:01:41;;;;;;;;;;;;;;;;;;5055976;28;20280;-67
2021/09/12 12:04:25;;;;;;;;;;;;;;;;;;5055811;28;20284;-67
2021/09/12 12:07:09;;;;;;;;;;;;;;;;;;5055502;28;19920;-66
2021/09/12 12:09:53;;;;;;;;;;;;;;;;;;5055316;28;20379;-66
2021/09/12 12:12:37;;;;;;;;;;;;;;;;;;5055581;28;19920;-66
2021/09/12 12:15:21;;;;;;;;;;;;;;;;;;5055543;28;20388;-66
2021/09/12 12:18:06;;;;;;;;;;;;;;;;;;5055389;28;19940;-67
2021/09/12 12:20:50;;;;;;;;;;;;;;;;;;5055579;28;19924;-67
2021/09/12 12:23:34;;;;;;;;;;;;;;;;;;5055273;28;19920;-66
2021/09/12 12:26:18;;;;;;;;;;;;;;;;;;5055435;28;19920;-66
2021/09/12 12:29:03;;;;;;;;;;;;;;;;;;5055325;28;20307;-66
2021/09/12 12:31:47;;;;;;;;;;;;;;;;;;5055180;28;20300;-66
2021/09/12 12:34:31;;;;;;;;;;;;;;;;;;5055316;28;19920;-66
2021/09/12 12:37:15;;;;;;;;;;;;;;;;;;5055027;28;20323;-66
2021/09/12 12:40:00;;;;;;;;;;;;;;;;;;5054054;28;19923;-66
2021/09/12 12:42:44;;;;;;;;;;;;;;;;;;5054456;28;19920;-66
2021/09/12 12:45:29;;;;;;;;;;;;;;;;;;5055035;28;19920;-64
2021/09/12 12:48:14;;;;;;;;;;;;;;;;;;5054720;28;19927;-66
2021/09/12 12:50:58;;;;;;;;;;;;;;;;;;5055012;28;19924;-66
2021/09/12 12:53:44;;;;;;;;;;;;;;;;;;5054862;28;19920;-67
2021/09/12 12:56:29;;;;;;;;;;;;;;;;;;5054616;28;19971;-67
2021/09/12 12:59:13;;;;;;;;;;;;;;;;;;5054610;28;19975;-66
2021/09/12 13:01:57;;;;;;;;;;;;;;;;;;5054643;28;19963;-66
2021/09/12 13:04:42;;;;;;;;;;;;;;;;;;5054650;28;19920;-66
2021/09/12 13:07:26;;;;;;;;;;;;;;;;;;5054790;28;19928;-67
2021/09/12 13:10:10;;;;;;;;;;;;;;;;;;5054149;28;19928;-66
2021/09/12 13:12:54;;;;;;;;;;;;;;;;;;5054417;28;20288;-67
2021/09/12 13:15:38;;;;;;;;;;;;;;;;;;5054438;28;19920;-67
2021/09/12 13:18:23;;;;;;;;;;;;;;;;;;5054259;28;19920;-67
2021/09/12 13:21:07;;;;;;;;;;;;;;;;;;5054257;28;19920;-67
2021/09/12 13:23:51;;;;;;;;;;;;;;;;;;5054187;28;19920;-67
2021/09/12 13:26:35;;;;;;;;;;;;;;;;;;5054171;28;20276;-67
2021/09/12 13:29:19;;;;;;;;;;;;;;;;;;5059706;28;19924;-67
2021/09/12 13:32:04;;;;;;;;;;;;;;;;;;5054135;28;19920;-67
2021/09/12 13:34:48;;;;;;;;;;;;;;;;;;5054086;28;20384;-67
2021/09/12 13:37:33;;;;;;;;;;;;;;;;;;5053853;28;19920;-67
2021/09/12 13:40:17;;;;;;;;;;;;;;;;;;5053857;28;19935;-66
2021/09/12 13:43:01;;;;;;;;;;;;;;;;;;5053976;28;20295;-67
2021/09/12 13:45:45;;;;;;;;;;;;;;;;;;5053872;28;19920;-67
2021/09/12 13:48:30;;;;;;;;;;;;;;;;;;5053755;28;19928;-67
2021/09/12 13:51:15;;;;;;;;;;;;;;;;;;5053428;28;19944;-67
2021/09/12 13:53:59;;;;;;;;;;;;;;;;;;5052908;28;20047;-67
2021/09/12 13:56:43;;;;;;;;;;;;;;;;;;5053450;28;19920;-67
2021/09/12 13:59:28;;;;;;;;;;;;;;;;;;5053366;28;19920;-67
2021/09/12 14:02:12;;;;;;;;;;;;;;;;;;5053403;28;19935;-67
2021/09/12 14:04:57;;;;;;;;;;;;;;;;;;5053428;28;19919;-67
2021/09/12 14:07:41;;;;;;;;;;;;;;;;;;5053366;28;20292;-67
2021/09/12 14:10:25;;;;;;;;;;;;;;;;;;5053122;28;20280;-67
2021/09/12 14:13:09;;;;;;;;;;;;;;;;;;5059233;28;20384;-67
2021/09/12 14:15:53;;;;;;;;;;;;;;;;;;5053230;28;19923;-66
2021/09/12 14:18:37;;;;;;;;;;;;;;;;;;5053069;28;20471;-67
2021/09/12 14:21:21;;;;;;;;;;;;;;;;;;5053083;28;19920;-67
2021/09/12 14:24:06;;;;;;;;;;;;;;;;;;5053019;28;19920;-66
2021/09/12 14:26:50;;;;;;;;;;;;;;;;;;5052869;28;20431;-67
2021/09/12 14:29:34;;;;;;;;;;;;;;;;;;5053221;28;19923;-67
2021/09/12 14:32:19;;;;;;;;;;;;;;;;;;5052915;28;19920;-66
2021/09/12 14:35:03;;;;;;;;;;;;;;;;;;5052881;28;20288;-67
2021/09/12 14:37:47;;;;;;;;;;;;;;;;;;5052735;28;19920;-66
2021/09/12 14:40:31;;;;;;;;;;;;;;;;;;5053101;28;20285;-66
2021/09/12 14:43:15;;;;;;;;;;;;;;;;;;5051771;28;19920;-67
2021/09/12 14:46:00;;;;;;;;;;;;;;;;;;5052745;28;19924;-67
2021/09/12 14:48:44;;;;;;;;;;;;;;;;;;5052542;28;19920;-67
2021/09/12 14:51:28;;;;;;;;;;;;;;;;;;5049748;28;19924;-69
2021/09/12 14:54:13;;;;;;;;;;;;;;;;;;5043137;28;19919;-66
2021/09/12 14:56:58;;;;;;;;;;;;;;;;;;5041240;28;19920;-67
2021/09/12 14:59:42;;;;;;;;;;;;;;;;;;5041961;28;19921;-66
2021/09/12 15:02:26;;;;;;;;;;;;;;;;;;5042358;28;19921;-66
2021/09/12 15:05:10;;;;;;;;;;;;;;;;;;5039722;28;19935;-66
2021/09/12 15:07:54;;;;;;;;;;;;;;;;;;5042509;28;19920;-66
2021/09/12 15:10:39;;;;;;;;;;;;;;;;;;5042278;28;19940;-66
2021/09/12 15:13:23;;;;;;;;;;;;;;;;;;5041792;28;19920;-66
2021/09/12 15:16:08;;;;;;;;;;;;;;;;;;5040323;28;19920;-67
2021/09/12 15:18:52;;;;;;;;;;;;;;;;;;5041665;28;19919;-66
2021/09/12 15:21:41;;;;;;;;;;;;;;;;;;5042656;28;19936;-66
2021/09/12 15:24:26;;;;;;;;;;;;;;;;;;5041402;28;19920;-66
2021/09/12 15:27:11;;;;;;;;;;;;;;;;;;5044437;28;19920;-66
2021/09/12 15:29:55;;;;;;;;;;;;;;;;;;5046269;28;19924;-66
2021/09/12 15:32:40;;;;;;;;;;;;;;;;;;5042636;28;19923;-66
2021/09/12 15:35:24;;;;;;;;;;;;;;;;;;5043142;28;19929;-67
2021/09/12 15:38:08;;;;;;;;;;;;;;;;;;5041441;28;19920;-66
2021/09/12 15:40:52;;;;;;;;;;;;;;;;;;5042468;28;20292;-66
2021/09/12 15:43:36;;;;;;;;;;;;;;;;;;5042678;28;19984;-67
2021/09/12 15:46:21;;;;;;;;;;;;;;;;;;5041566;28;19920;-67
2021/09/12 15:49:05;;;;;;;;;;;;;;;;;;5041969;28;19931;-66
2021/09/12 15:51:50;;;;;;;;;;;;;;;;;;5047868;28;19925;-66
2021/09/12 15:54:34;;;;;;;;;;;;;;;;;;5041677;28;20308;-67
2021/09/12 15:57:18;;;;;;;;;;;;;;;;;;5042979;28;19920;-66
2021/09/12 16:00:03;;;;;;;;;;;;;;;;;;5041245;28;19924;-66
2021/09/12 16:02:55;;;;;;;;;;;;;;;;;;5042720;28;20396;-66
2021/09/12 16:05:40;;;;;;;;;;;;;;;;;;5041736;28;19924;-66
2021/09/12 16:08:24;;;;;;;;;;;;;;;;;;5041606;28;19924;-66
2021/09/12 16:11:08;;;;;;;;;;;;;;;;;;5041847;28;19975;-66
2021/09/12 16:13:52;;;;;;;;;;;;;;;;;;5042389;28;19920;-66
2021/09/12 16:16:36;;;;;;;;;;;;;;;;;;5044146;28;19920;-66
2021/09/12 16:19:20;;;;;;;;;;;;;;;;;;5044611;28;19924;-66
2021/09/12 16:22:04;;;;;;;;;;;;;;;;;;5044852;28;19921;-66
2021/09/12 16:24:48;;;;;;;;;;;;;;;;;;5045539;28;19920;-67
2021/09/12 16:27:33;;;;;;;;;;;;;;;;;;5046507;28;19929;-66
2021/09/12 16:30:17;;;;;;;;;;;;;;;;;;5045774;28;19939;-66
2021/09/12 16:33:01;;;;;;;;;;;;;;;;;;5044789;28;19920;-66
2021/09/12 16:35:47;;;;;;;;;;;;;;;;;;5044035;28;19919;-66
2021/09/12 16:38:31;;;;;;;;;;;;;;;;;;5045502;28;19929;-66
2021/09/12 16:41:15;;;;;;;;;;;;;;;;;;5045393;28;19920;-66
2021/09/12 16:44:01;;;;;;;;;;;;;;;;;;5044769;28;20316;-66
2021/09/12 16:46:50;;;;;;;;;;;;;;;;;;5045744;28;20268;-66
2021/09/12 16:49:34;;;;;;;;;;;;;;;;;;5043361;28;19920;-66
2021/09/12 16:52:18;;;;;;;;;;;;;;;;;;5043609;28;19920;-66
2021/09/12 16:55:02;;;;;;;;;;;;;;;;;;5043085;28;19920;-66
2021/09/12 16:57:47;;;;;;;;;;;;;;;;;;5045148;28;19920;-66
2021/09/12 17:00:31;;;;;;;;;;;;;;;;;;5045104;28;19928;-66
2021/09/12 17:03:15;;;;;;;;;;;;;;;;;;5044980;28;19924;-66
2021/09/12 17:05:59;;;;;;;;;;;;;;;;;;5043939;28;19920;-66
2021/09/12 17:08:43;;;;;;;;;;;;;;;;;;5043599;28;19924;-66
2021/09/12 17:11:28;;;;;;;;;;;;;;;;;;5044496;28;19924;-66
2021/09/12 17:14:12;;;;;;;;;;;;;;;;;;5044865;28;19921;-66
2021/09/12 17:16:56;;;;;;;;;;;;;;;;;;5046280;28;19920;-66
2021/09/12 17:19:40;;;;;;;;;;;;;;;;;;5043780;28;20387;-66
2021/09/12 17:22:24;;;;;;;;;;;;;;;;;;5046463;28;19920;-66
2021/09/12 17:25:12;;;;;;;;;;;;;;;;;;5045608;28;19920;-66
2021/09/12 17:27:56;;;;;;;;;;;;;;;;;;5044132;28;20384;-66
2021/09/12 17:30:44;;;;;;;;;;;;;;;;;;5045458;28;19924;-66
2021/09/12 17:33:28;;;;;;;;;;;;;;;;;;5043336;28;19919;-66
2021/09/12 17:36:12;;;;;;;;;;;;;;;;;;5046407;28;20296;-66
2021/09/12 17:38:56;;;;;;;;;;;;;;;;;;5042637;28;19988;-66
2021/09/12 17:41:40;;;;;;;;;;;;;;;;;;5042692;28;19927;-66
2021/09/12 17:44:25;;;;;;;;;;;;;;;;;;5043515;28;20313;-66
2021/09/12 17:47:09;;;;;;;;;;;;;;;;;;5041679;28;19920;-66
2021/09/12 17:49:54;;;;;;;;;;;;;;;;;;5043367;28;19923;-66
2021/09/12 17:52:38;;;;;;;;;;;;;;;;;;5043816;28;20304;-66
2021/09/12 17:55:23;;;;;;;;;;;;;;;;;;5043266;28;19943;-66
2021/09/12 17:58:07;;;;;;;;;;;;;;;;;;5042131;28;19920;-66
2021/09/12 18:00:51;;;;;;;;;;;;;;;;;;5043886;28;19944;-66
2021/09/12 18:03:35;;;;;;;;;;;;;;;;;;5044043;28;19928;-66
2021/09/12 18:06:20;;;;;;;;;;;;;;;;;;5043111;28;20392;-66
2021/09/12 18:09:04;;;;;;;;;;;;;;;;;;5046354;28;20403;-66
2021/09/12 18:11:49;;;;;;;;;;;;;;;;;;5050648;28;19923;-66
2021/09/12 18:14:33;;;;;;;;;;;;;;;;;;5050673;28;20022;-66
2021/09/12 18:17:18;;;;;;;;;;;;;;;;;;5045143;28;20288;-66
2021/09/12 18:20:02;;;;;;;;;;;;;;;;;;5042530;28;19920;-66
2021/09/12 18:22:46;;;;;;;;;;;;;;;;;;5045054;28;20395;-66
2021/09/12 18:25:30;;;;;;;;;;;;;;;;;;5041612;28;20399;-66
2021/09/12 18:28:16;;;;;;;;;;;;;;;;;;5044262;28;19921;-66
2021/09/12 18:31:00;;;;;;;;;;;;;;;;;;5044081;28;19928;-66
2021/09/12 18:33:44;;;;;;;;;;;;;;;;;;5043902;28;19920;-66
2021/09/12 18:36:29;;;;;;;;;;;;;;;;;;5047081;28;19921;-66
2021/09/12 18:39:13;;;;;;;;;;;;;;;;;;5041109;28;19963;-66
2021/09/12 18:41:57;;;;;;;;;;;;;;;;;;5042376;28;19935;-66